Time;durP1;ratioP1;P1;durP2;ratioP2;P2;SDS_P1;SDS_P2;PMS_P1;PMS_P2;Temp;Humidity;BMP_temperature;BMP_pressure;BME280_temperature;BME280_humidity;BME280_pressure;Samples;Min_cycle;Max_cycle;Signal;HPM_P1;HPM_P2
2022/01/27 00:02:03;;;;;;;78.70;40.08;;;6.00;99.90;;;;;;5027809;28;20221;-75
2022/01/27 00:04:36;;;;;;;69.70;36.35;;;6.10;99.90;;;;;;5028768;28;20209;-74
2022/01/27 00:07:03;;;;;;;67.90;33.10;;;6.00;99.90;;;;;;5024077;28;20233;-70
2022/01/27 00:09:44;;;;;;;67.55;37.53;;;6.00;99.90;;;;;;5031900;28;20209;-74
2022/01/27 00:12:15;;;;;;;66.10;36.88;;;5.90;99.90;;;;;;5030222;28;20226;-74
2022/01/27 00:14:46;;;;;;;65.03;35.70;;;5.90;99.90;;;;;;5028982;28;20327;-74
2022/01/27 00:17:15;;;;;;;64.20;33.25;;;5.90;99.90;;;;;;5030488;28;20684;-73
2022/01/27 00:19:42;;;;;;;63.95;35.40;;;6.00;99.90;;;;;;5034577;28;20236;-71
2022/01/27 00:22:09;;;;;;;56.35;33.47;;;6.00;99.90;;;;;;5027859;28;20597;-74
2022/01/27 00:24:36;;;;;;;52.20;31.83;;;6.00;99.90;;;;;;5019930;28;20554;-74
2022/01/27 00:27:03;;;;;;;63.75;35.08;;;6.00;99.90;;;;;;5030878;28;20287;-72
2022/01/27 00:29:30;;;;;;;56.95;31.70;;;6.00;99.90;;;;;;5031805;28;20669;-71
2022/01/27 00:31:59;;;;;;;58.10;32.22;;;6.00;99.90;;;;;;5028585;28;20286;-74
2022/01/27 00:34:25;;;;;;;62.38;30.75;;;6.00;99.90;;;;;;5030395;28;20307;-71
2022/01/27 00:36:52;;;;;;;62.95;31.58;;;6.00;99.90;;;;;;5015188;28;20271;-74
2022/01/27 00:39:19;;;;;;;66.55;33.25;;;6.00;99.90;;;;;;5024897;28;20229;-74
2022/01/27 00:41:47;;;;;;;56.60;32.65;;;6.00;99.90;;;;;;5021143;28;20225;-77
2022/01/27 00:44:14;;;;;;;55.15;31.05;;;6.00;99.90;;;;;;5023321;28;20523;-71
2022/01/27 00:46:42;;;;;;;62.83;30.73;;;6.00;99.90;;;;;;5029187;28;20594;-74
2022/01/27 00:49:10;;;;;;;52.22;31.70;;;6.00;99.90;;;;;;5028804;28;20202;-71
2022/01/27 00:51:39;;;;;;;52.42;30.45;;;6.00;99.90;;;;;;5022005;28;20225;-72
2022/01/27 00:54:12;;;;;;;55.40;32.03;;;5.90;99.90;;;;;;5027482;28;20305;-72
2022/01/27 00:56:46;;;;;;;55.42;30.13;;;6.00;99.90;;;;;;5026690;28;20242;-73
2022/01/27 00:59:31;;;;;;;51.28;27.15;;;6.00;99.90;;;;;;5027163;28;20209;-71
2022/01/27 01:02:07;;;;;;;51.05;27.15;;;5.90;99.90;;;;;;5015224;28;20589;-71
2022/01/27 01:04:39;;;;;;;57.15;32.42;;;5.90;99.90;;;;;;5019631;28;20240;-73
2022/01/27 01:07:07;;;;;;;59.25;31.27;;;5.90;99.90;;;;;;5029057;28;20197;-72
2022/01/27 01:15:16;;;;;;;53.97;31.05;;;5.90;99.90;;;;;;5023047;28;20193;-73
2022/01/27 01:17:56;;;;;;;56.08;30.05;;;5.90;99.90;;;;;;5021954;28;20551;-74
2022/01/27 01:31:31;;;;;;;48.38;27.48;;;6.00;99.90;;;;;;5026225;28;20579;-70
2022/01/27 01:34:11;;;;;;;54.13;30.08;;;6.00;99.90;;;;;;5028023;28;20574;-73
2022/01/27 01:36:53;;;;;;;48.35;28.10;;;5.90;99.90;;;;;;5032314;28;20232;-71
2022/01/27 01:39:20;;;;;;;56.15;27.80;;;5.90;99.90;;;;;;5026209;28;20537;-72
2022/01/27 01:41:47;;;;;;;55.65;31.02;;;6.00;99.90;;;;;;5034181;28;20263;-74
2022/01/27 01:44:15;;;;;;;52.53;28.65;;;5.90;99.90;;;;;;5034098;28;20518;-73
2022/01/27 01:46:42;;;;;;;49.60;26.80;;;6.00;99.90;;;;;;5032542;28;20237;-72
2022/01/27 01:49:09;;;;;;;55.22;29.13;;;5.90;99.90;;;;;;5031798;28;20204;-72
2022/01/27 01:51:38;;;;;;;53.92;29.33;;;5.90;99.90;;;;;;5032293;28;20222;-73
2022/01/27 01:54:08;;;;;;;58.10;31.15;;;5.90;99.90;;;;;;5035195;28;20279;-71
2022/01/27 01:56:37;;;;;;;57.60;29.33;;;5.90;99.90;;;;;;5029307;28;20271;-70
2022/01/27 01:59:06;;;;;;;49.78;29.67;;;5.90;99.90;;;;;;5035923;28;20215;-72
2022/01/27 02:01:34;;;;;;;53.83;29.10;;;5.90;99.90;;;;;;5031483;28;20257;-70
2022/01/27 02:04:05;;;;;;;57.75;30.60;;;5.90;99.90;;;;;;5036970;28;20276;-71
2022/01/27 02:06:37;;;;;;;51.22;30.17;;;5.90;99.90;;;;;;5039459;28;20198;-70
2022/01/27 02:09:26;;;;;;;52.25;32.50;;;6.00;99.90;;;;;;5034056;28;20234;-74
2022/01/27 02:20:11;;;;;;;56.67;30.23;;;6.00;99.90;;;;;;5030129;28;20216;-72
2022/01/27 02:22:39;;;;;;;53.92;29.15;;;6.00;99.90;;;;;;5036865;28;20234;-73
2022/01/27 02:25:07;;;;;;;47.72;28.98;;;6.00;99.90;;;;;;5030551;28;20226;-73
2022/01/27 02:27:34;;;;;;;57.53;29.90;;;6.00;99.90;;;;;;5034821;28;20239;-73
2022/01/27 02:30:01;;;;;;;53.00;29.73;;;5.90;99.90;;;;;;5024027;28;20205;-74
2022/01/27 02:32:28;;;;;;;58.45;29.35;;;6.00;99.90;;;;;;5034654;28;20221;-70
2022/01/27 02:34:55;;;;;;;53.65;31.50;;;6.00;99.90;;;;;;5023557;28;20271;-72
2022/01/27 02:37:23;;;;;;;55.95;30.30;;;6.00;99.90;;;;;;5032948;28;20208;-73
2022/01/27 02:39:50;;;;;;;52.47;30.73;;;6.00;99.90;;;;;;5012133;28;20203;-71
2022/01/27 02:42:25;;;;;;;56.20;31.80;;;6.00;99.90;;;;;;5020556;28;20220;-73
2022/01/27 02:45:05;;;;;;;57.45;30.42;;;6.00;99.90;;;;;;5018286;28;20259;-72
2022/01/27 02:47:33;;;;;;;50.20;28.92;;;6.00;99.90;;;;;;5025268;28;20260;-75
2022/01/27 02:50:00;;;;;;;52.05;29.92;;;6.00;99.90;;;;;;5031408;28;20224;-68
2022/01/27 02:52:29;;;;;;;52.53;32.78;;;6.00;99.90;;;;;;5018239;28;20712;-71
2022/01/27 02:54:56;;;;;;;50.95;27.83;;;6.00;99.90;;;;;;5026395;28;20202;-73
2022/01/27 02:57:24;;;;;;;55.58;28.73;;;6.00;99.90;;;;;;5028239;28;20226;-70
2022/01/27 02:59:51;;;;;;;55.95;30.25;;;6.00;99.90;;;;;;5035984;28;20200;-72
2022/01/27 03:02:19;;;;;;;52.65;29.25;;;6.10;99.90;;;;;;5026518;28;20225;-72
2022/01/27 03:04:46;;;;;;;58.53;31.30;;;6.00;99.90;;;;;;5032691;28;20213;-72
2022/01/27 03:07:14;;;;;;;59.15;31.15;;;6.00;99.90;;;;;;5030773;28;20251;-71
2022/01/27 03:09:44;;;;;;;53.30;31.58;;;6.10;99.90;;;;;;5028930;28;20272;-72
2022/01/27 03:12:12;;;;;;;46.78;28.35;;;6.10;99.90;;;;;;5031120;28;20526;-71
2022/01/27 03:17:27;;;;;;;59.33;29.25;;;6.10;99.90;;;;;;5082290;28;20203;-82
2022/01/27 03:19:54;;;;;;;59.80;30.98;;;6.10;99.90;;;;;;5078683;28;20262;-80
2022/01/27 03:22:21;;;;;;;49.92;27.77;;;6.10;99.90;;;;;;5090332;28;20235;-81
2022/01/27 03:24:50;;;;;;;53.53;28.90;;;6.10;99.90;;;;;;5077286;28;20203;-81
2022/01/27 03:27:20;;;;;;;43.67;25.02;;;6.10;99.90;;;;;;5079605;28;20290;-81
2022/01/27 03:29:47;;;;;;;51.92;29.92;;;6.10;99.90;;;;;;5082640;28;20195;-82
2022/01/27 03:32:14;;;;;;;49.90;27.52;;;6.10;99.90;;;;;;5081468;28;20218;-80
2022/01/27 03:34:42;;;;;;;46.45;28.77;;;6.10;99.90;;;;;;5081675;28;20267;-80
2022/01/27 03:37:09;;;;;;;45.55;25.75;;;6.10;99.90;;;;;;5081800;28;20223;-81
2022/01/27 03:39:38;;;;;;;48.60;26.20;;;6.10;99.90;;;;;;5078431;28;20260;-80
2022/01/27 03:42:07;;;;;;;46.58;27.20;;;6.10;99.90;;;;;;5075961;28;20211;-83
2022/01/27 03:44:35;;;;;;;43.08;27.48;;;6.10;99.90;;;;;;5081559;28;20214;-79
2022/01/27 03:47:02;;;;;;;47.97;26.65;;;6.10;99.90;;;;;;5086529;28;20201;-79
2022/01/27 03:49:29;;;;;;;46.08;27.45;;;6.10;99.90;;;;;;5085637;28;20205;-79
2022/01/27 03:51:59;;;;;;;48.72;28.23;;;6.10;99.90;;;;;;5088122;28;20200;-79
2022/01/27 03:54:26;;;;;;;42.95;28.85;;;6.10;99.90;;;;;;5082708;28;20204;-77
2022/01/27 03:56:53;;;;;;;50.20;28.17;;;6.10;99.90;;;;;;5076749;28;20210;-77
2022/01/27 03:59:21;;;;;;;48.53;28.42;;;6.10;99.90;;;;;;5084901;28;20248;-77
2022/01/27 04:01:48;;;;;;;52.35;27.25;;;6.10;99.90;;;;;;5085855;28;20185;-77
2022/01/27 04:04:16;;;;;;;46.35;27.52;;;6.20;99.90;;;;;;5092019;28;20177;-77
2022/01/27 04:06:42;;;;;;;44.72;27.98;;;6.10;99.90;;;;;;5088434;28;20235;-78
2022/01/27 04:09:11;;;;;;;45.28;26.80;;;6.10;99.90;;;;;;5092337;28;20206;-81
2022/01/27 04:11:40;;;;;;;55.78;27.52;;;6.10;99.90;;;;;;5068018;28;20208;-83
2022/01/27 04:14:07;;;;;;;48.35;27.95;;;6.20;99.90;;;;;;5064807;28;20204;-81
2022/01/27 04:16:35;;;;;;;47.17;29.52;;;6.10;99.90;;;;;;5076794;28;20247;-82
2022/01/27 04:19:03;;;;;;;48.90;27.25;;;6.10;99.90;;;;;;5078176;28;20303;-82
2022/01/27 04:21:30;;;;;;;52.22;29.58;;;6.30;99.90;;;;;;5061778;28;20263;-82
2022/01/27 04:23:57;;;;;;;51.40;29.83;;;6.10;99.90;;;;;;5071483;28;20259;-81
2022/01/27 04:26:30;;;;;;;48.72;27.63;;;6.10;99.90;;;;;;5072316;28;20242;-82
2022/01/27 04:28:57;;;;;;;51.10;29.40;;;6.10;99.90;;;;;;5072245;28;20203;-81
2022/01/27 04:31:26;;;;;;;46.58;28.52;;;6.10;99.90;;;;;;5066066;28;20312;-81
2022/01/27 04:33:54;;;;;;;53.58;33.33;;;6.00;99.90;;;;;;5075322;28;20714;-82
2022/01/27 04:36:27;;;;;;;57.15;31.48;;;5.90;99.90;;;;;;5066334;28;20222;-80
2022/01/27 04:39:02;;;;;;;55.65;29.65;;;6.00;99.90;;;;;;5067765;28;20206;-78
2022/01/27 04:41:36;;;;;;;54.40;30.02;;;5.90;99.90;;;;;;5074585;28;20208;-80
2022/01/27 04:44:12;;;;;;;52.42;30.15;;;5.90;99.90;;;;;;5071130;28;20235;-80
2022/01/27 04:46:45;;;;;;;59.85;32.97;;;5.90;99.90;;;;;;5083176;28;20239;-80
2022/01/27 04:49:13;;;;;;;43.50;29.45;;;5.80;99.90;;;;;;5088212;28;20207;-77
2022/01/27 04:51:40;;;;;;;60.05;34.85;;;5.90;99.90;;;;;;5082366;28;20200;-79
2022/01/27 04:54:12;;;;;;;54.60;33.17;;;5.70;99.90;;;;;;5082996;28;20204;-81
2022/01/27 04:56:41;;;;;;;54.42;31.58;;;5.70;99.90;;;;;;5086085;28;20219;-81
2022/01/27 04:59:14;;;;;;;54.00;32.03;;;5.70;99.90;;;;;;5080771;28;20211;-78
2022/01/27 05:01:45;;;;;;;59.97;34.47;;;5.60;99.90;;;;;;5073669;28;20257;-77
2022/01/27 05:04:16;;;;;;;55.92;31.50;;;5.70;99.90;;;;;;5078365;28;20209;-77
2022/01/27 05:06:43;;;;;;;56.80;32.05;;;5.70;99.90;;;;;;5076618;28;20215;-80
2022/01/27 05:09:10;;;;;;;59.90;33.45;;;5.50;99.90;;;;;;5075346;28;20201;-81
2022/01/27 05:11:44;;;;;;;58.05;32.42;;;5.70;99.90;;;;;;5078171;28;20273;-80
2022/01/27 05:14:16;;;;;;;54.50;26.58;;;5.70;99.90;;;;;;5070713;28;20197;-81
2022/01/27 05:16:43;;;;;;;50.70;28.48;;;5.80;99.90;;;;;;5078352;28;20227;-79
2022/01/27 05:19:10;;;;;;;50.33;28.70;;;5.80;99.90;;;;;;5063087;28;20200;-81
2022/01/27 05:21:38;;;;;;;49.10;26.98;;;5.80;99.90;;;;;;5074584;28;20198;-80
2022/01/27 05:24:06;;;;;;;48.78;30.17;;;5.80;99.90;;;;;;5074298;28;20199;-79
2022/01/27 05:26:34;;;;;;;52.72;28.85;;;5.90;99.90;;;;;;5073003;28;20228;-81
2022/01/27 05:29:01;;;;;;;51.97;32.63;;;5.80;99.90;;;;;;5072313;28;20203;-81
2022/01/27 05:31:28;;;;;;;50.83;29.77;;;5.90;99.90;;;;;;5067029;28;20206;-81
2022/01/27 05:33:55;;;;;;;57.72;30.75;;;5.90;99.90;;;;;;5076367;28;20203;-80
2022/01/27 05:36:22;;;;;;;54.60;31.75;;;5.80;99.90;;;;;;5077280;28;20262;-79
2022/01/27 05:38:50;;;;;;;53.65;31.38;;;5.70;99.90;;;;;;5066555;28;20214;-79
2022/01/27 05:41:17;;;;;;;55.90;31.73;;;5.70;99.90;;;;;;5079634;28;20214;-78
2022/01/27 05:43:45;;;;;;;59.50;32.42;;;5.50;99.90;;;;;;5076557;28;20210;-79
2022/01/27 05:46:12;;;;;;;61.80;33.08;;;5.60;99.90;;;;;;5085978;28;20344;-79
2022/01/27 05:48:39;;;;;;;55.90;30.75;;;5.60;99.90;;;;;;5079818;28;20215;-79
2022/01/27 05:51:06;;;;;;;51.60;30.50;;;5.60;99.90;;;;;;5081712;28;20273;-80
2022/01/27 05:53:35;;;;;;;63.42;34.05;;;5.60;99.90;;;;;;5083752;28;20231;-80
2022/01/27 05:56:04;;;;;;;61.80;33.03;;;5.50;99.90;;;;;;5085834;28;20236;-79
2022/01/27 05:58:31;;;;;;;64.88;34.85;;;5.50;99.90;;;;;;5082921;28;20290;-81
2022/01/27 06:00:58;;;;;;;50.58;29.63;;;5.70;99.90;;;;;;5074309;28;20203;-82
2022/01/27 06:03:25;;;;;;;66.57;36.10;;;5.40;99.90;;;;;;5079381;28;20213;-80
2022/01/27 06:05:52;;;;;;;64.60;33.72;;;5.50;99.90;;;;;;5075645;28;20219;-81
2022/01/27 06:08:19;;;;;;;57.88;32.25;;;5.50;99.90;;;;;;5071236;28;20326;-82
2022/01/27 06:10:46;;;;;;;58.63;33.40;;;5.40;99.90;;;;;;5068479;28;20580;-81
2022/01/27 06:13:14;;;;;;;70.07;36.00;;;5.40;99.90;;;;;;5069768;28;20299;-81
2022/01/27 06:15:41;;;;;;;60.90;32.30;;;5.50;99.90;;;;;;5075011;28;20325;-81
2022/01/27 06:18:08;;;;;;;66.80;35.88;;;5.50;99.90;;;;;;5073643;28;20219;-82
2022/01/27 06:20:37;;;;;;;78.60;35.70;;;5.50;99.90;;;;;;5067218;28;20199;-80
2022/01/27 06:23:04;;;;;;;66.00;37.22;;;5.50;99.90;;;;;;5068359;28;20225;-80
2022/01/27 06:25:32;;;;;;;67.88;34.03;;;5.50;99.90;;;;;;5071470;28;20290;-83
2022/01/27 06:27:59;;;;;;;65.78;41.45;;;5.50;99.90;;;;;;5077469;28;20441;-81
2022/01/27 06:30:27;;;;;;;58.00;33.20;;;5.60;99.90;;;;;;5083240;28;20200;-82
2022/01/27 06:32:54;;;;;;;58.83;31.17;;;5.70;99.90;;;;;;5069088;28;20275;-80
2022/01/27 06:35:21;;;;;;;59.28;33.47;;;5.60;99.90;;;;;;5070534;28;20244;-82
2022/01/27 06:37:49;;;;;;;55.95;31.42;;;5.70;99.90;;;;;;5062669;28;20279;-82
2022/01/27 06:40:16;;;;;;;51.60;29.55;;;5.70;99.90;;;;;;5070523;28;20296;-83
2022/01/27 06:42:44;;;;;;;52.90;31.75;;;5.70;99.90;;;;;;5073177;28;20211;-81
2022/01/27 06:45:11;;;;;;;54.13;34.33;;;5.60;99.90;;;;;;5081202;28;20500;-82
2022/01/27 06:47:40;;;;;;;55.53;31.75;;;5.60;99.90;;;;;;5078000;28;20234;-82
2022/01/27 06:50:08;;;;;;;66.05;34.03;;;5.60;99.90;;;;;;5076537;28;20492;-83
2022/01/27 06:52:35;;;;;;;49.50;30.52;;;5.60;99.90;;;;;;5074202;28;20282;-84
2022/01/27 06:55:03;;;;;;;49.65;32.15;;;5.60;99.90;;;;;;5075488;28;20250;-82
2022/01/27 06:57:30;;;;;;;58.33;33.25;;;5.70;99.90;;;;;;5078330;28;20322;-83
2022/01/27 06:59:57;;;;;;;53.00;32.03;;;5.60;99.90;;;;;;5080950;28;20311;-83
2022/01/27 07:02:24;;;;;;;45.38;29.73;;;5.60;99.90;;;;;;5065837;28;20328;-84
2022/01/27 07:04:52;;;;;;;56.28;29.65;;;5.60;99.90;;;;;;5069774;28;20195;-83
2022/01/27 07:07:19;;;;;;;65.72;33.03;;;5.60;99.90;;;;;;5067823;28;20636;-81
2022/01/27 07:09:46;;;;;;;65.45;31.85;;;5.60;99.90;;;;;;5060548;28;20286;-82
2022/01/27 07:12:13;;;;;;;53.55;33.53;;;5.80;99.90;;;;;;5053874;28;20235;-85
2022/01/27 07:14:40;;;;;;;53.28;30.52;;;5.70;99.90;;;;;;5064039;28;20268;-83
2022/01/27 07:17:07;;;;;;;52.78;32.03;;;5.60;99.90;;;;;;5076279;28;20205;-84
2022/01/27 07:19:33;;;;;;;56.08;30.95;;;5.60;99.90;;;;;;5078549;28;20254;-84
2022/01/27 07:22:02;;;;;;;60.15;29.80;;;5.60;99.90;;;;;;5072782;28;20275;-83
2022/01/27 07:24:29;;;;;;;56.42;32.25;;;5.60;99.90;;;;;;5075439;28;20199;-81
2022/01/27 07:26:56;;;;;;;55.53;31.92;;;5.60;99.90;;;;;;5078109;28;20284;-79
2022/01/27 07:29:22;;;;;;;54.38;33.40;;;5.60;99.90;;;;;;5086761;28;20195;-81
2022/01/27 07:31:49;;;;;;;54.35;31.63;;;5.70;99.90;;;;;;5077898;28;20222;-79
2022/01/27 07:34:16;;;;;;;61.70;31.58;;;5.70;99.90;;;;;;5079125;28;20204;-77
2022/01/27 07:36:43;;;;;;;50.35;28.77;;;5.80;99.90;;;;;;5079092;28;20247;-77
2022/01/27 07:39:14;;;;;;;51.65;34.65;;;5.70;99.90;;;;;;5078427;28;20215;-78
2022/01/27 07:41:41;;;;;;;52.28;29.27;;;5.70;99.90;;;;;;5078864;28;20183;-79
2022/01/27 07:44:08;;;;;;;48.03;28.08;;;5.70;99.90;;;;;;5078969;28;20184;-78
2022/01/27 07:46:35;;;;;;;51.20;27.23;;;5.70;99.90;;;;;;5080609;28;20255;-77
2022/01/27 07:49:02;;;;;;;46.95;27.08;;;5.80;99.90;;;;;;5088310;28;20218;-80
2022/01/27 07:51:29;;;;;;;44.60;29.20;;;5.70;99.90;;;;;;5092990;28;20219;-80
2022/01/27 07:53:56;;;;;;;39.50;25.05;;;5.80;99.90;;;;;;5083408;28;20184;-78
2022/01/27 07:56:25;;;;;;;39.35;25.88;;;5.90;99.90;;;;;;5073204;28;20288;-78
2022/01/27 07:58:52;;;;;;;39.17;24.13;;;6.00;99.90;;;;;;5073420;28;20254;-79
2022/01/27 08:01:19;;;;;;;42.15;26.48;;;6.00;99.90;;;;;;5080870;28;20256;-79
2022/01/27 08:03:46;;;;;;;39.70;23.38;;;6.20;99.90;;;;;;5067800;28;20234;-78
2022/01/27 08:06:13;;;;;;;34.25;24.33;;;6.10;99.90;;;;;;5065084;28;20224;-77
2022/01/27 08:08:40;;;;;;;37.28;22.35;;;6.10;99.90;;;;;;5061226;28;20227;-79
2022/01/27 08:11:07;;;;;;;35.45;22.65;;;6.10;99.90;;;;;;5078535;28;20288;-78
2022/01/27 08:13:36;;;;;;;33.60;21.15;;;6.30;99.90;;;;;;5067428;28;20204;-77
2022/01/27 08:16:03;;;;;;;31.60;20.92;;;6.30;99.90;;;;;;5070008;28;20239;-80
2022/01/27 08:18:30;;;;;;;29.95;19.83;;;6.20;99.90;;;;;;5072822;28;20244;-79
2022/01/27 08:20:57;;;;;;;31.42;19.50;;;6.20;99.90;;;;;;5069711;28;20228;-80
2022/01/27 08:23:24;;;;;;;35.58;22.83;;;6.20;99.90;;;;;;5064058;28;20251;-77
2022/01/27 08:26:01;;;;;;;28.05;22.63;;;6.20;99.90;;;;;;5070227;28;20220;-77
2022/01/27 08:28:32;;;;;;;35.63;22.05;;;6.30;99.90;;;;;;5071394;28;20197;-79
2022/01/27 08:31:02;;;;;;;35.25;21.35;;;6.30;99.90;;;;;;5064726;28;20212;-79
2022/01/27 08:33:29;;;;;;;42.10;27.45;;;6.30;99.90;;;;;;5063371;28;20197;-76
2022/01/27 08:35:58;;;;;;;28.02;19.63;;;6.30;99.90;;;;;;5071929;28;20304;-78
2022/01/27 08:38:25;;;;;;;30.98;21.13;;;6.30;99.90;;;;;;5065900;28;20221;-79
2022/01/27 08:40:52;;;;;;;32.03;21.70;;;6.40;99.90;;;;;;5056397;28;20198;-81
2022/01/27 08:43:19;;;;;;;30.45;21.35;;;6.40;99.90;;;;;;5060646;28;20201;-81
2022/01/27 08:45:46;;;;;;;33.47;22.00;;;6.50;99.90;;;;;;5061146;28;20228;-79
2022/01/27 08:48:18;;;;;;;30.98;20.45;;;6.50;99.90;;;;;;5060638;28;20206;-83
2022/01/27 08:50:51;;;;;;;23.83;17.45;;;6.60;99.90;;;;;;5060848;28;20205;-80
2022/01/27 08:53:18;;;;;;;28.85;19.02;;;6.50;99.90;;;;;;5063224;28;20220;-80
2022/01/27 08:55:46;;;;;;;31.50;19.58;;;6.60;99.90;;;;;;5075940;28;20223;-84
2022/01/27 08:58:13;;;;;;;23.65;17.45;;;6.60;99.90;;;;;;5087767;28;20212;-81
2022/01/27 09:00:41;;;;;;;23.05;16.33;;;6.60;99.90;;;;;;5083059;28;20198;-81
2022/01/27 09:03:09;;;;;;;27.52;17.55;;;6.60;99.90;;;;;;5082797;28;20216;-80
2022/01/27 09:05:38;;;;;;;26.52;17.00;;;6.70;99.90;;;;;;5076428;28;20231;-81
2022/01/27 09:08:05;;;;;;;22.80;15.82;;;6.70;99.90;;;;;;5081698;28;20193;-80
2022/01/27 09:10:35;;;;;;;24.25;17.88;;;6.70;99.90;;;;;;5082672;28;20292;-80
2022/01/27 09:13:03;;;;;;;23.05;16.00;;;6.60;99.90;;;;;;5074924;28;20188;-81
2022/01/27 09:35:37;;;;;;;29.52;15.65;;;6.60;99.90;;;;;;5044158;22;20268;-73
2022/01/27 09:38:08;;;;;;;31.23;18.45;;;6.70;99.90;;;;;;5061625;28;20198;-74
2022/01/27 09:40:59;;;;;;;25.67;17.38;;;6.70;99.90;;;;;;5053341;28;20662;-74
2022/01/27 09:43:27;;;;;;;29.75;19.60;;;6.80;99.90;;;;;;5041217;28;20264;-73
2022/01/27 09:45:57;;;;;;;24.80;18.90;;;6.80;99.90;;;;;;5050576;28;20206;-77
2022/01/27 09:48:30;;;;;;;24.17;16.10;;;6.80;99.90;;;;;;5042278;28;20221;-75
2022/01/27 09:51:23;;;;;;;28.05;16.55;;;6.80;99.90;;;;;;5042745;28;20598;-77
2022/01/27 09:53:48;;;;;;;29.00;19.13;;;6.80;99.90;;;;;;5044153;28;20327;-75
2022/01/27 09:56:16;;;;;;;27.50;19.40;;;6.80;99.90;;;;;;5033807;28;20231;-76
2022/01/27 09:58:43;;;;;;;30.25;18.88;;;6.90;99.90;;;;;;5048545;28;20254;-74
2022/01/27 10:01:10;;;;;;;26.00;19.02;;;6.90;99.90;;;;;;5042977;28;20227;-75
2022/01/27 10:03:53;;;;;;;28.80;17.25;;;6.90;99.90;;;;;;5049852;28;20204;-75
2022/01/27 10:06:27;;;;;;;27.45;19.17;;;6.90;99.90;;;;;;5041688;28;20205;-77
2022/01/27 10:09:13;;;;;;;36.13;20.73;;;6.90;99.90;;;;;;5044646;28;20227;-76
2022/01/27 10:11:40;;;;;;;38.47;19.83;;;7.00;99.90;;;;;;5044572;28;20285;-74
2022/01/27 10:14:22;;;;;;;29.42;20.20;;;7.00;99.90;;;;;;5049603;28;20210;-77
2022/01/27 10:16:53;;;;;;;26.95;18.60;;;7.00;99.90;;;;;;5043477;28;20562;-74
2022/01/27 10:19:20;;;;;;;31.27;20.98;;;7.10;99.90;;;;;;5042268;28;20195;-76
2022/01/27 10:21:49;;;;;;;35.83;20.75;;;7.10;99.90;;;;;;5053177;28;20302;-74
2022/01/27 10:24:24;;;;;;;29.95;21.67;;;7.10;99.90;;;;;;5051962;28;20199;-77
2022/01/27 10:27:22;;;;;;;29.42;20.90;;;7.20;99.90;;;;;;5032150;28;20689;-75
2022/01/27 10:30:06;;;;;;;29.23;19.73;;;7.30;99.90;;;;;;5050159;28;20661;-74
2022/01/27 10:32:41;;;;;;;26.90;17.92;;;7.30;99.90;;;;;;5051485;28;20235;-74
2022/01/27 10:35:10;;;;;;;31.73;19.35;;;7.30;99.90;;;;;;5047933;28;20202;-77
2022/01/27 10:37:55;;;;;;;29.35;18.95;;;7.40;99.90;;;;;;5044763;28;20327;-75
2022/01/27 10:40:25;;;;;;;34.15;19.38;;;7.40;99.90;;;;;;5047092;28;20301;-74
2022/01/27 10:43:05;;;;;;;37.95;18.55;;;7.50;99.90;;;;;;5052993;28;20254;-77
2022/01/27 10:45:32;;;;;;;32.95;18.08;;;7.50;99.90;;;;;;5055156;28;20632;-73
2022/01/27 10:48:15;;;;;;;26.98;16.02;;;7.60;99.90;;;;;;5056352;28;20237;-74
2022/01/27 10:51:05;;;;;;;24.55;15.07;;;7.70;99.90;;;;;;5043186;28;20226;-75
2022/01/27 10:53:55;;;;;;;25.85;15.52;;;7.70;99.90;;;;;;5059108;28;20203;-77
2022/01/27 10:56:25;;;;;;;30.48;16.25;;;7.70;99.90;;;;;;5023135;28;20547;-75
2022/01/27 10:58:54;;;;;;;30.15;15.55;;;7.90;99.90;;;;;;5052705;28;20242;-77
2022/01/27 11:01:32;;;;;;;28.63;16.27;;;7.90;99.90;;;;;;5053475;28;20278;-77
2022/01/27 11:04:03;;;;;;;21.60;14.60;;;8.00;99.90;;;;;;5040845;28;20203;-75
2022/01/27 11:06:33;;;;;;;21.88;13.43;;;8.10;99.90;;;;;;5049089;28;20587;-75
2022/01/27 11:09:07;;;;;;;17.95;13.27;;;8.20;99.90;;;;;;5047422;28;20228;-74
2022/01/27 11:11:35;;;;;;;19.83;13.88;;;8.30;99.90;;;;;;5051168;28;20311;-74
2022/01/27 11:14:04;;;;;;;26.58;13.95;;;8.30;99.90;;;;;;5055755;28;20213;-73
2022/01/27 11:16:51;;;;;;;24.35;14.13;;;8.50;99.90;;;;;;5058068;28;20299;-73
2022/01/27 11:19:26;;;;;;;18.67;12.70;;;8.50;99.90;;;;;;5062908;28;20226;-74
2022/01/27 11:22:00;;;;;;;29.05;13.48;;;8.50;99.90;;;;;;5063917;28;20228;-74
2022/01/27 11:25:08;;;;;;;21.90;14.65;;;8.60;99.90;;;;;;5067763;28;20272;-76
2022/01/27 11:27:37;;;;;;;35.35;16.50;;;8.50;99.90;;;;;;5060474;28;20290;-75
2022/01/27 11:30:08;;;;;;;25.98;14.40;;;8.60;99.90;;;;;;5054590;28;20231;-75
2022/01/27 11:32:39;;;;;;;29.05;14.80;;;8.60;99.90;;;;;;5048885;28;20284;-76
2022/01/27 11:35:17;;;;;;;28.92;16.75;;;8.70;99.90;;;;;;5046104;28;20196;-74
2022/01/27 11:37:50;;;;;;;34.30;14.77;;;8.70;99.90;;;;;;5045491;28;20294;-73
2022/01/27 11:40:21;;;;;;;24.50;14.23;;;8.80;99.90;;;;;;5053930;28;20210;-72
2022/01/27 11:43:19;;;;;;;25.38;14.25;;;8.80;99.90;;;;;;5046827;28;20220;-75
2022/01/27 11:45:49;;;;;;;20.65;12.75;;;8.80;99.90;;;;;;4976948;28;20206;-76
2022/01/27 11:48:21;;;;;;;29.50;13.27;;;8.80;99.90;;;;;;5033988;28;20203;-77
2022/01/27 11:50:53;;;;;;;25.15;12.35;;;8.90;99.90;;;;;;5051802;28;20269;-75
2022/01/27 11:53:35;;;;;;;26.13;11.25;;;8.90;99.90;;;;;;5052981;28;20203;-73
2022/01/27 11:56:06;;;;;;;22.42;11.50;;;8.80;99.90;;;;;;5057652;28;20230;-74
2022/01/27 11:58:46;;;;;;;29.45;11.52;;;9.00;99.90;;;;;;5044474;28;20200;-77
2022/01/27 12:01:17;;;;;;;29.23;12.75;;;9.00;99.90;;;;;;5056866;28;20280;-77
2022/01/27 12:04:07;;;;;;;26.75;10.25;;;9.10;99.90;;;;;;5043276;28;20619;-75
2022/01/27 12:06:36;;;;;;;24.73;14.10;;;9.10;99.90;;;;;;5047355;28;20448;-75
2022/01/27 12:09:29;;;;;;;26.30;10.77;;;9.20;99.90;;;;;;5058049;28;20254;-73
2022/01/27 12:11:59;;;;;;;24.33;10.43;;;9.20;99.90;;;;;;5047857;28;20330;-75
2022/01/27 12:14:30;;;;;;;20.02;10.68;;;9.10;99.90;;;;;;5050699;28;20200;-73
2022/01/27 12:17:21;;;;;;;24.52;10.20;;;9.00;99.90;;;;;;5058394;28;20279;-77
2022/01/27 12:19:50;;;;;;;21.58;9.82;;;9.10;99.90;;;;;;5050925;28;20562;-76
2022/01/27 12:22:17;;;;;;;21.33;10.07;;;9.10;99.90;;;;;;5043077;28;20627;-73
2022/01/27 12:24:58;;;;;;;30.73;10.15;;;9.10;99.90;;;;;;5050645;28;20212;-73
2022/01/27 12:27:28;;;;;;;22.50;8.80;;;9.10;99.90;;;;;;5043908;28;20204;-77
2022/01/27 12:29:56;;;;;;;15.27;8.45;;;9.10;99.90;;;;;;5043420;28;20232;-78
2022/01/27 12:32:26;;;;;;;17.27;10.02;;;9.20;99.90;;;;;;5042681;28;20223;-74
2022/01/27 12:34:56;;;;;;;23.60;7.35;;;9.20;99.90;;;;;;5046044;28;20247;-74
2022/01/27 12:37:32;;;;;;;19.60;8.10;;;9.30;99.90;;;;;;5048463;28;20208;-73
2022/01/27 12:40:00;;;;;;;16.00;7.55;;;9.20;99.90;;;;;;5046189;28;20563;-76
2022/01/27 12:42:34;;;;;;;14.90;7.20;;;9.30;99.90;;;;;;5049133;28;20235;-76
2022/01/27 12:45:05;;;;;;;18.42;6.22;;;9.30;99.90;;;;;;5055253;28;20523;-76
2022/01/27 12:47:33;;;;;;;18.63;7.30;;;9.40;99.90;;;;;;5046974;28;20206;-75
2022/01/27 12:50:08;;;;;;;14.85;8.15;;;9.50;99.90;;;;;;5046213;28;20266;-76
2022/01/27 12:52:40;;;;;;;11.77;6.43;;;9.50;99.90;;;;;;5044571;28;20229;-73
2022/01/27 12:55:09;;;;;;;22.17;5.72;;;9.50;99.90;;;;;;5050728;28;20286;-78
2022/01/27 12:57:38;;;;;;;22.98;7.50;;;9.80;99.90;;;;;;5052899;28;20219;-75
2022/01/27 13:00:08;;;;;;;16.63;6.75;;;9.90;99.90;;;;;;5049026;28;20502;-76
2022/01/27 13:02:35;;;;;;;12.43;4.90;;;10.10;99.90;;;;;;5061724;28;20227;-73
2022/01/27 13:05:04;;;;;;;12.02;5.28;;;10.20;99.90;;;;;;5050711;28;20218;-73
2022/01/27 13:07:31;;;;;;;9.35;5.20;;;10.30;99.90;;;;;;5049733;28;20211;-75
2022/01/27 13:10:01;;;;;;;16.88;4.43;;;10.40;99.90;;;;;;5041499;28;20221;-73
2022/01/27 13:12:33;;;;;;;12.60;4.00;;;10.50;99.90;;;;;;5049871;28;20220;-75
2022/01/27 13:15:08;;;;;;;14.43;4.20;;;10.60;99.90;;;;;;5049525;28;20200;-76
2022/01/27 13:17:43;;;;;;;25.10;6.65;;;10.50;99.90;;;;;;5053354;28;20213;-75
2022/01/27 13:20:16;;;;;;;16.27;5.47;;;10.50;99.90;;;;;;5030416;28;20209;-74
2022/01/27 13:22:54;;;;;;;14.88;4.50;;;10.50;99.90;;;;;;5058746;28;20214;-75
2022/01/27 13:25:22;;;;;;;17.35;4.82;;;10.50;99.90;;;;;;5051989;28;20211;-74
2022/01/27 13:28:10;;;;;;;12.95;3.90;;;10.40;99.90;;;;;;5053434;28;20227;-76
2022/01/27 13:30:39;;;;;;;15.75;5.45;;;10.30;99.90;;;;;;5040080;28;20227;-74
2022/01/27 13:33:13;;;;;;;19.83;4.68;;;10.30;99.90;;;;;;5053798;28;20630;-75
2022/01/27 13:35:40;;;;;;;34.00;4.93;;;10.40;99.90;;;;;;5046359;28;20273;-75
2022/01/27 13:38:20;;;;;;;20.38;5.15;;;10.50;99.90;;;;;;5059863;28;20661;-77
2022/01/27 13:43:39;;;;;;;22.55;4.97;;;10.60;99.90;;;;;;5060099;28;20238;-76
2022/01/27 13:46:08;;;;;;;12.30;4.35;;;10.60;99.90;;;;;;5051392;28;20242;-76